sensor_id;sensor_type;location;lat;lon;timestamp;P1;durP1;ratioP1;P2;durP2;ratioP2
69240;SDS011;56352;55.750;13.198;2023-03-01T00:01:05;19.33;;;10.35;;
69240;SDS011;56352;55.750;13.198;2023-03-01T00:03:36;21.02;;;10.95;;
69240;SDS011;56352;55.750;13.198;2023-03-01T00:06:03;17.30;;;10.15;;
69240;SDS011;56352;55.750;13.198;2023-03-01T00:08:31;21.50;;;11.05;;
69240;SDS011;56352;55.750;13.198;2023-03-01T00:13:28;23.05;;;12.13;;
69240;SDS011;56352;55.750;13.198;2023-03-01T00:15:55;23.35;;;11.70;;
69240;SDS011;56352;55.750;13.198;2023-03-01T00:18:21;23.48;;;12.57;;
69240;SDS011;56352;55.750;13.198;2023-03-01T00:20:49;25.38;;;13.30;;
69240;SDS011;56352;55.750;13.198;2023-03-01T00:23:17;23.83;;;13.33;;
69240;SDS011;56352;55.750;13.198;2023-03-01T00:25:44;22.95;;;12.43;;
69240;SDS011;56352;55.750;13.198;2023-03-01T00:28:11;28.27;;;14.27;;
69240;SDS011;56352;55.750;13.198;2023-03-01T00:30:38;22.02;;;12.52;;
69240;SDS011;56352;55.750;13.198;2023-03-01T00:33:04;23.73;;;12.63;;
69240;SDS011;56352;55.750;13.198;2023-03-01T00:35:34;24.80;;;11.73;;
69240;SDS011;56352;55.750;13.198;2023-03-01T00:38:01;22.33;;;12.55;;
69240;SDS011;56352;55.750;13.198;2023-03-01T00:40:28;19.15;;;11.82;;
69240;SDS011;56352;55.750;13.198;2023-03-01T00:42:55;18.85;;;10.90;;
69240;SDS011;56352;55.750;13.198;2023-03-01T00:45:21;19.63;;;11.38;;
69240;SDS011;56352;55.750;13.198;2023-03-01T00:47:49;18.45;;;11.13;;
69240;SDS011;56352;55.750;13.198;2023-03-01T00:50:17;21.40;;;11.60;;
69240;SDS011;56352;55.750;13.198;2023-03-01T00:52:44;20.95;;;11.43;;
69240;SDS011;56352;55.750;13.198;2023-03-01T00:55:11;20.80;;;11.32;;
69240;SDS011;56352;55.750;13.198;2023-03-01T00:57:38;20.15;;;11.43;;
69240;SDS011;56352;55.750;13.198;2023-03-01T01:00:05;19.77;;;11.23;;
69240;SDS011;56352;55.750;13.198;2023-03-01T01:02:33;23.75;;;11.85;;
69240;SDS011;56352;55.750;13.198;2023-03-01T01:05:00;23.90;;;12.70;;
69240;SDS011;56352;55.750;13.198;2023-03-01T01:07:26;22.80;;;11.82;;
69240;SDS011;56352;55.750;13.198;2023-03-01T01:09:53;20.73;;;11.68;;
69240;SDS011;56352;55.750;13.198;2023-03-01T01:12:20;21.88;;;11.73;;
69240;SDS011;56352;55.750;13.198;2023-03-01T01:14:46;20.40;;;12.27;;
69240;SDS011;56352;55.750;13.198;2023-03-01T01:17:13;21.13;;;11.27;;
69240;SDS011;56352;55.750;13.198;2023-03-01T01:19:42;20.20;;;11.38;;
69240;SDS011;56352;55.750;13.198;2023-03-01T01:24:36;21.73;;;11.05;;
69240;SDS011;56352;55.750;13.198;2023-03-01T01:27:02;23.10;;;11.18;;
69240;SDS011;56352;55.750;13.198;2023-03-01T01:29:29;25.35;;;11.85;;
69240;SDS011;56352;55.750;13.198;2023-03-01T01:31:56;23.60;;;11.75;;
69240;SDS011;56352;55.750;13.198;2023-03-01T01:34:22;22.88;;;12.40;;
69240;SDS011;56352;55.750;13.198;2023-03-01T01:36:49;21.92;;;11.82;;
69240;SDS011;56352;55.750;13.198;2023-03-01T01:39:17;18.17;;;11.07;;
69240;SDS011;56352;55.750;13.198;2023-03-01T01:41:44;21.48;;;11.05;;
69240;SDS011;56352;55.750;13.198;2023-03-01T01:54:50;20.13;;;10.18;;
69240;SDS011;56352;55.750;13.198;2023-03-01T01:57:21;20.77;;;11.27;;
69240;SDS011;56352;55.750;13.198;2023-03-01T01:59:51;18.40;;;10.05;;
69240;SDS011;56352;55.750;13.198;2023-03-01T02:02:20;18.35;;;10.30;;
69240;SDS011;56352;55.750;13.198;2023-03-01T02:04:48;18.85;;;10.27;;
69240;SDS011;56352;55.750;13.198;2023-03-01T02:07:17;22.13;;;10.80;;
69240;SDS011;56352;55.750;13.198;2023-03-01T02:09:47;20.17;;;10.13;;
69240;SDS011;56352;55.750;13.198;2023-03-01T02:12:16;18.40;;;9.90;;
69240;SDS011;56352;55.750;13.198;2023-03-01T02:14:46;16.23;;;9.70;;
69240;SDS011;56352;55.750;13.198;2023-03-01T02:17:12;18.88;;;11.40;;
69240;SDS011;56352;55.750;13.198;2023-03-01T02:22:49;17.00;;;9.73;;
69240;SDS011;56352;55.750;13.198;2023-03-01T02:30:24;20.15;;;10.15;;
69240;SDS011;56352;55.750;13.198;2023-03-01T02:32:51;18.33;;;9.45;;
69240;SDS011;56352;55.750;13.198;2023-03-01T02:35:19;19.13;;;10.77;;
69240;SDS011;56352;55.750;13.198;2023-03-01T02:37:46;21.75;;;11.32;;
69240;SDS011;56352;55.750;13.198;2023-03-01T02:40:15;21.20;;;11.20;;
69240;SDS011;56352;55.750;13.198;2023-03-01T02:45:17;24.77;;;10.82;;
69240;SDS011;56352;55.750;13.198;2023-03-01T02:47:44;29.50;;;12.80;;
69240;SDS011;56352;55.750;13.198;2023-03-01T02:50:12;33.78;;;14.23;;
69240;SDS011;56352;55.750;13.198;2023-03-01T02:52:46;36.72;;;14.88;;
69240;SDS011;56352;55.750;13.198;2023-03-01T02:55:14;40.63;;;15.93;;
69240;SDS011;56352;55.750;13.198;2023-03-01T02:57:43;36.47;;;15.80;;
69240;SDS011;56352;55.750;13.198;2023-03-01T03:00:12;33.50;;;14.98;;
69240;SDS011;56352;55.750;13.198;2023-03-01T03:02:49;35.20;;;15.13;;
69240;SDS011;56352;55.750;13.198;2023-03-01T03:05:18;35.78;;;15.30;;
69240;SDS011;56352;55.750;13.198;2023-03-01T03:07:46;35.25;;;14.32;;
69240;SDS011;56352;55.750;13.198;2023-03-01T03:10:24;30.35;;;13.80;;
69240;SDS011;56352;55.750;13.198;2023-03-01T03:13:13;28.88;;;13.48;;
69240;SDS011;56352;55.750;13.198;2023-03-01T03:15:40;27.35;;;13.13;;
69240;SDS011;56352;55.750;13.198;2023-03-01T03:18:09;31.52;;;13.77;;
69240;SDS011;56352;55.750;13.198;2023-03-01T03:20:38;29.30;;;12.73;;
69240;SDS011;56352;55.750;13.198;2023-03-01T03:23:06;25.92;;;11.65;;
69240;SDS011;56352;55.750;13.198;2023-03-01T03:25:33;25.90;;;11.75;;
69240;SDS011;56352;55.750;13.198;2023-03-01T03:28:04;24.77;;;12.20;;
69240;SDS011;56352;55.750;13.198;2023-03-01T03:30:36;24.73;;;10.82;;
69240;SDS011;56352;55.750;13.198;2023-03-01T03:33:05;25.92;;;12.43;;
69240;SDS011;56352;55.750;13.198;2023-03-01T03:35:32;24.92;;;11.23;;
69240;SDS011;56352;55.750;13.198;2023-03-01T03:38:12;26.70;;;11.13;;
69240;SDS011;56352;55.750;13.198;2023-03-01T03:40:44;24.35;;;11.60;;
69240;SDS011;56352;55.750;13.198;2023-03-01T03:43:13;25.60;;;11.88;;
69240;SDS011;56352;55.750;13.198;2023-03-01T03:45:41;25.58;;;11.15;;
69240;SDS011;56352;55.750;13.198;2023-03-01T03:48:09;27.98;;;11.98;;
69240;SDS011;56352;55.750;13.198;2023-03-01T03:50:37;31.08;;;12.68;;
69240;SDS011;56352;55.750;13.198;2023-03-01T03:53:05;26.70;;;11.00;;
69240;SDS011;56352;55.750;13.198;2023-03-01T03:55:37;22.30;;;10.65;;
69240;SDS011;56352;55.750;13.198;2023-03-01T03:58:06;24.42;;;11.43;;
69240;SDS011;56352;55.750;13.198;2023-03-01T04:00:35;19.80;;;8.95;;
69240;SDS011;56352;55.750;13.198;2023-03-01T04:03:06;17.52;;;8.13;;
69240;SDS011;56352;55.750;13.198;2023-03-01T04:05:33;19.52;;;9.30;;
69240;SDS011;56352;55.750;13.198;2023-03-01T04:08:01;19.58;;;9.45;;
69240;SDS011;56352;55.750;13.198;2023-03-01T04:10:29;21.95;;;9.48;;
69240;SDS011;56352;55.750;13.198;2023-03-01T04:12:58;17.83;;;9.50;;
69240;SDS011;56352;55.750;13.198;2023-03-01T04:15:25;17.77;;;8.60;;
69240;SDS011;56352;55.750;13.198;2023-03-01T04:17:53;16.55;;;8.95;;
69240;SDS011;56352;55.750;13.198;2023-03-01T04:20:21;18.73;;;9.00;;
69240;SDS011;56352;55.750;13.198;2023-03-01T04:22:57;19.45;;;9.13;;
69240;SDS011;56352;55.750;13.198;2023-03-01T04:25:25;18.05;;;8.48;;
69240;SDS011;56352;55.750;13.198;2023-03-01T04:27:52;18.63;;;8.50;;
69240;SDS011;56352;55.750;13.198;2023-03-01T04:30:18;16.08;;;8.90;;
69240;SDS011;56352;55.750;13.198;2023-03-01T04:32:45;15.40;;;8.10;;
69240;SDS011;56352;55.750;13.198;2023-03-01T04:35:11;17.38;;;8.02;;
69240;SDS011;56352;55.750;13.198;2023-03-01T04:37:38;16.48;;;7.15;;
69240;SDS011;56352;55.750;13.198;2023-03-01T04:40:05;15.85;;;7.80;;
69240;SDS011;56352;55.750;13.198;2023-03-01T04:42:42;14.32;;;7.07;;
69240;SDS011;56352;55.750;13.198;2023-03-01T04:45:09;15.07;;;7.50;;
69240;SDS011;56352;55.750;13.198;2023-03-01T04:47:42;16.33;;;7.43;;
69240;SDS011;56352;55.750;13.198;2023-03-01T04:50:11;18.23;;;7.55;;
69240;SDS011;56352;55.750;13.198;2023-03-01T04:52:38;17.23;;;8.05;;
69240;SDS011;56352;55.750;13.198;2023-03-01T04:55:05;14.23;;;6.90;;
69240;SDS011;56352;55.750;13.198;2023-03-01T04:57:33;16.23;;;8.13;;
69240;SDS011;56352;55.750;13.198;2023-03-01T04:59:59;15.27;;;7.32;;
69240;SDS011;56352;55.750;13.198;2023-03-01T05:02:26;15.77;;;7.60;;
69240;SDS011;56352;55.750;13.198;2023-03-01T05:04:52;14.98;;;7.95;;
69240;SDS011;56352;55.750;13.198;2023-03-01T05:07:23;14.43;;;6.65;;
69240;SDS011;56352;55.750;13.198;2023-03-01T05:09:50;14.80;;;7.40;;
69240;SDS011;56352;55.750;13.198;2023-03-01T05:12:20;12.93;;;6.22;;
69240;SDS011;56352;55.750;13.198;2023-03-01T05:14:46;16.45;;;8.07;;
69240;SDS011;56352;55.750;13.198;2023-03-01T05:17:13;12.63;;;7.30;;
69240;SDS011;56352;55.750;13.198;2023-03-01T05:19:39;12.90;;;7.10;;
69240;SDS011;56352;55.750;13.198;2023-03-01T05:22:08;15.52;;;8.20;;
69240;SDS011;56352;55.750;13.198;2023-03-01T05:24:35;13.38;;;7.45;;
69240;SDS011;56352;55.750;13.198;2023-03-01T05:27:02;15.85;;;8.10;;
69240;SDS011;56352;55.750;13.198;2023-03-01T05:29:30;14.60;;;7.25;;
69240;SDS011;56352;55.750;13.198;2023-03-01T05:31:58;18.00;;;8.02;;
69240;SDS011;56352;55.750;13.198;2023-03-01T05:34:26;17.55;;;8.15;;
69240;SDS011;56352;55.750;13.198;2023-03-01T05:36:54;12.85;;;7.15;;
69240;SDS011;56352;55.750;13.198;2023-03-01T05:39:21;17.20;;;8.02;;
69240;SDS011;56352;55.750;13.198;2023-03-01T05:41:52;15.07;;;7.75;;
69240;SDS011;56352;55.750;13.198;2023-03-01T05:44:20;17.25;;;7.30;;
69240;SDS011;56352;55.750;13.198;2023-03-01T05:46:47;18.40;;;7.75;;
69240;SDS011;56352;55.750;13.198;2023-03-01T05:49:14;14.65;;;7.25;;
69240;SDS011;56352;55.750;13.198;2023-03-01T05:51:41;14.18;;;7.45;;
69240;SDS011;56352;55.750;13.198;2023-03-01T05:54:09;13.65;;;6.88;;
69240;SDS011;56352;55.750;13.198;2023-03-01T05:56:37;13.23;;;6.80;;
69240;SDS011;56352;55.750;13.198;2023-03-01T05:59:04;13.80;;;6.20;;
69240;SDS011;56352;55.750;13.198;2023-03-01T06:01:31;14.00;;;6.97;;
69240;SDS011;56352;55.750;13.198;2023-03-01T06:03:59;14.48;;;5.82;;
69240;SDS011;56352;55.750;13.198;2023-03-01T06:06:25;11.75;;;6.50;;
69240;SDS011;56352;55.750;13.198;2023-03-01T06:08:54;16.13;;;7.53;;
69240;SDS011;56352;55.750;13.198;2023-03-01T06:11:21;13.48;;;7.18;;
69240;SDS011;56352;55.750;13.198;2023-03-01T06:13:48;12.15;;;6.82;;
69240;SDS011;56352;55.750;13.198;2023-03-01T06:16:14;12.57;;;6.72;;
69240;SDS011;56352;55.750;13.198;2023-03-01T06:18:41;19.52;;;6.43;;
69240;SDS011;56352;55.750;13.198;2023-03-01T06:21:08;13.10;;;6.40;;
69240;SDS011;56352;55.750;13.198;2023-03-01T06:23:34;12.27;;;6.18;;
69240;SDS011;56352;55.750;13.198;2023-03-01T06:26:05;12.63;;;6.40;;
69240;SDS011;56352;55.750;13.198;2023-03-01T06:28:33;14.77;;;6.53;;
69240;SDS011;56352;55.750;13.198;2023-03-01T06:30:59;11.60;;;6.38;;
69240;SDS011;56352;55.750;13.198;2023-03-01T06:33:26;16.20;;;5.65;;
69240;SDS011;56352;55.750;13.198;2023-03-01T06:35:56;12.48;;;5.28;;
69240;SDS011;56352;55.750;13.198;2023-03-01T06:38:23;10.60;;;5.28;;
69240;SDS011;56352;55.750;13.198;2023-03-01T06:40:54;11.35;;;4.95;;
69240;SDS011;56352;55.750;13.198;2023-03-01T06:43:23;9.55;;;5.15;;
69240;SDS011;56352;55.750;13.198;2023-03-01T06:45:50;16.08;;;5.72;;
69240;SDS011;56352;55.750;13.198;2023-03-01T06:48:17;10.68;;;5.15;;
69240;SDS011;56352;55.750;13.198;2023-03-01T06:50:43;12.52;;;5.15;;
69240;SDS011;56352;55.750;13.198;2023-03-01T06:53:10;13.45;;;4.95;;
69240;SDS011;56352;55.750;13.198;2023-03-01T06:55:37;8.48;;;4.95;;
69240;SDS011;56352;55.750;13.198;2023-03-01T06:58:03;9.15;;;4.82;;
69240;SDS011;56352;55.750;13.198;2023-03-01T07:00:30;12.70;;;5.65;;
69240;SDS011;56352;55.750;13.198;2023-03-01T07:03:00;9.77;;;5.35;;
69240;SDS011;56352;55.750;13.198;2023-03-01T07:05:29;11.52;;;5.75;;
69240;SDS011;56352;55.750;13.198;2023-03-01T07:07:56;10.35;;;5.35;;
69240;SDS011;56352;55.750;13.198;2023-03-01T07:10:23;11.63;;;5.93;;
69240;SDS011;56352;55.750;13.198;2023-03-01T07:12:50;10.60;;;5.35;;
69240;SDS011;56352;55.750;13.198;2023-03-01T07:15:16;13.32;;;5.70;;
69240;SDS011;56352;55.750;13.198;2023-03-01T07:17:43;14.63;;;5.38;;
69240;SDS011;56352;55.750;13.198;2023-03-01T07:20:11;14.00;;;5.68;;
69240;SDS011;56352;55.750;13.198;2023-03-01T07:22:39;11.52;;;5.75;;
69240;SDS011;56352;55.750;13.198;2023-03-01T07:25:08;10.43;;;5.18;;
69240;SDS011;56352;55.750;13.198;2023-03-01T07:27:35;8.15;;;4.53;;
69240;SDS011;56352;55.750;13.198;2023-03-01T07:30:02;9.48;;;4.60;;
69240;SDS011;56352;55.750;13.198;2023-03-01T07:32:29;9.23;;;5.55;;
69240;SDS011;56352;55.750;13.198;2023-03-01T07:34:56;9.27;;;4.68;;
69240;SDS011;56352;55.750;13.198;2023-03-01T07:37:22;9.30;;;4.32;;
69240;SDS011;56352;55.750;13.198;2023-03-01T07:39:49;8.05;;;4.43;;
69240;SDS011;56352;55.750;13.198;2023-03-01T07:42:15;8.40;;;4.93;;
69240;SDS011;56352;55.750;13.198;2023-03-01T07:44:42;9.52;;;4.32;;
69240;SDS011;56352;55.750;13.198;2023-03-01T07:47:08;7.90;;;4.60;;
69240;SDS011;56352;55.750;13.198;2023-03-01T07:49:35;7.82;;;4.65;;
69240;SDS011;56352;55.750;13.198;2023-03-01T07:52:02;7.53;;;4.75;;
69240;SDS011;56352;55.750;13.198;2023-03-01T07:54:29;7.63;;;4.18;;
69240;SDS011;56352;55.750;13.198;2023-03-01T07:56:56;9.30;;;5.15;;
69240;SDS011;56352;55.750;13.198;2023-03-01T07:59:23;8.38;;;4.43;;
69240;SDS011;56352;55.750;13.198;2023-03-01T08:01:55;8.05;;;4.88;;
69240;SDS011;56352;55.750;13.198;2023-03-01T08:04:22;6.55;;;3.83;;
69240;SDS011;56352;55.750;13.198;2023-03-01T08:06:51;5.65;;;3.70;;
69240;SDS011;56352;55.750;13.198;2023-03-01T08:09:18;5.85;;;3.70;;
69240;SDS011;56352;55.750;13.198;2023-03-01T08:11:44;6.82;;;4.28;;
69240;SDS011;56352;55.750;13.198;2023-03-01T08:14:11;6.97;;;3.80;;
69240;SDS011;56352;55.750;13.198;2023-03-01T08:16:38;6.25;;;3.80;;
69240;SDS011;56352;55.750;13.198;2023-03-01T08:19:05;5.93;;;4.22;;
69240;SDS011;56352;55.750;13.198;2023-03-01T08:21:33;7.05;;;4.20;;
69240;SDS011;56352;55.750;13.198;2023-03-01T08:24:03;6.72;;;4.28;;
69240;SDS011;56352;55.750;13.198;2023-03-01T08:26:32;8.27;;;3.87;;
69240;SDS011;56352;55.750;13.198;2023-03-01T08:28:59;6.40;;;4.28;;
69240;SDS011;56352;55.750;13.198;2023-03-01T08:31:27;6.22;;;4.05;;
69240;SDS011;56352;55.750;13.198;2023-03-01T08:34:06;6.68;;;4.35;;
69240;SDS011;56352;55.750;13.198;2023-03-01T08:36:36;6.53;;;3.90;;
69240;SDS011;56352;55.750;13.198;2023-03-01T08:39:04;7.43;;;3.85;;
69240;SDS011;56352;55.750;13.198;2023-03-01T08:41:31;6.53;;;3.97;;
69240;SDS011;56352;55.750;13.198;2023-03-01T08:43:57;5.22;;;3.63;;
69240;SDS011;56352;55.750;13.198;2023-03-01T08:46:27;6.63;;;3.65;;
69240;SDS011;56352;55.750;13.198;2023-03-01T08:48:55;6.75;;;4.10;;
69240;SDS011;56352;55.750;13.198;2023-03-01T08:51:23;7.47;;;4.22;;
69240;SDS011;56352;55.750;13.198;2023-03-01T08:53:50;6.32;;;4.28;;
69240;SDS011;56352;55.750;13.198;2023-03-01T08:56:17;7.85;;;4.18;;
69240;SDS011;56352;55.750;13.198;2023-03-01T08:58:45;5.65;;;3.63;;
69240;SDS011;56352;55.750;13.198;2023-03-01T09:01:14;7.13;;;4.43;;
69240;SDS011;56352;55.750;13.198;2023-03-01T09:03:42;6.63;;;4.22;;
69240;SDS011;56352;55.750;13.198;2023-03-01T09:06:10;5.88;;;4.28;;
69240;SDS011;56352;55.750;13.198;2023-03-01T09:08:41;5.88;;;3.95;;
69240;SDS011;56352;55.750;13.198;2023-03-01T09:11:10;7.55;;;3.85;;
69240;SDS011;56352;55.750;13.198;2023-03-01T09:13:38;6.32;;;4.07;;
69240;SDS011;56352;55.750;13.198;2023-03-01T09:16:07;5.93;;;4.30;;
69240;SDS011;56352;55.750;13.198;2023-03-01T09:18:35;6.93;;;3.80;;
69240;SDS011;56352;55.750;13.198;2023-03-01T09:21:06;6.60;;;4.40;;
69240;SDS011;56352;55.750;13.198;2023-03-01T09:23:45;6.07;;;3.92;;
69240;SDS011;56352;55.750;13.198;2023-03-01T09:26:13;7.43;;;4.28;;
69240;SDS011;56352;55.750;13.198;2023-03-01T09:28:42;6.38;;;3.92;;
69240;SDS011;56352;55.750;13.198;2023-03-01T09:31:10;6.57;;;4.00;;
69240;SDS011;56352;55.750;13.198;2023-03-01T09:33:39;6.55;;;4.45;;
69240;SDS011;56352;55.750;13.198;2023-03-01T09:36:08;4.97;;;3.58;;
69240;SDS011;56352;55.750;13.198;2023-03-01T09:38:37;5.75;;;3.35;;
69240;SDS011;56352;55.750;13.198;2023-03-01T09:41:09;6.75;;;3.90;;
69240;SDS011;56352;55.750;13.198;2023-03-01T09:43:48;4.32;;;3.75;;
69240;SDS011;56352;55.750;13.198;2023-03-01T09:46:22;5.80;;;3.97;;
69240;SDS011;56352;55.750;13.198;2023-03-01T09:48:50;4.55;;;3.70;;
69240;SDS011;56352;55.750;13.198;2023-03-01T09:51:23;5.38;;;3.63;;
69240;SDS011;56352;55.750;13.198;2023-03-01T09:54:00;4.07;;;3.38;;
69240;SDS011;56352;55.750;13.198;2023-03-01T09:56:36;4.38;;;2.97;;
69240;SDS011;56352;55.750;13.198;2023-03-01T10:01:58;4.55;;;2.90;;
69240;SDS011;56352;55.750;13.198;2023-03-01T10:04:46;3.85;;;3.05;;
69240;SDS011;56352;55.750;13.198;2023-03-01T10:07:30;5.18;;;3.00;;
69240;SDS011;56352;55.750;13.198;2023-03-01T10:10:07;6.70;;;3.88;;
69240;SDS011;56352;55.750;13.198;2023-03-01T10:12:35;5.30;;;3.33;;
69240;SDS011;56352;55.750;13.198;2023-03-01T10:18:21;4.28;;;3.17;;
69240;SDS011;56352;55.750;13.198;2023-03-01T10:20:53;4.82;;;3.17;;
69240;SDS011;56352;55.750;13.198;2023-03-01T10:23:28;5.70;;;3.78;;
69240;SDS011;56352;55.750;13.198;2023-03-01T10:31:12;6.65;;;3.53;;
69240;SDS011;56352;55.750;13.198;2023-03-01T10:33:43;6.25;;;3.67;;
69240;SDS011;56352;55.750;13.198;2023-03-01T10:36:10;5.57;;;3.90;;
69240;SDS011;56352;55.750;13.198;2023-03-01T10:38:50;6.90;;;4.03;;
69240;SDS011;56352;55.750;13.198;2023-03-01T10:41:22;5.43;;;3.50;;
69240;SDS011;56352;55.750;13.198;2023-03-01T10:43:51;5.68;;;3.67;;
69240;SDS011;56352;55.750;13.198;2023-03-01T10:49:12;4.90;;;3.22;;
69240;SDS011;56352;55.750;13.198;2023-03-01T10:51:40;6.35;;;3.80;;
69240;SDS011;56352;55.750;13.198;2023-03-01T10:54:18;5.85;;;3.35;;
69240;SDS011;56352;55.750;13.198;2023-03-01T10:56:54;5.03;;;3.95;;
69240;SDS011;56352;55.750;13.198;2023-03-01T11:05:39;5.25;;;3.53;;
69240;SDS011;56352;55.750;13.198;2023-03-01T11:07:49;5.53;;;3.20;;
69240;SDS011;56352;55.750;13.198;2023-03-01T11:10:17;5.20;;;3.38;;
69240;SDS011;56352;55.750;13.198;2023-03-01T11:12:45;4.20;;;2.92;;
69240;SDS011;56352;55.750;13.198;2023-03-01T11:15:30;3.58;;;2.65;;
69240;SDS011;56352;55.750;13.198;2023-03-01T11:17:57;4.20;;;2.88;;
69240;SDS011;56352;55.750;13.198;2023-03-01T11:20:38;5.25;;;2.90;;
69240;SDS011;56352;55.750;13.198;2023-03-01T11:23:07;4.47;;;2.28;;
69240;SDS011;56352;55.750;13.198;2023-03-01T11:25:36;2.65;;;2.20;;
69240;SDS011;56352;55.750;13.198;2023-03-01T11:28:06;2.47;;;1.75;;
69240;SDS011;56352;55.750;13.198;2023-03-01T11:30:39;4.82;;;2.13;;
69240;SDS011;56352;55.750;13.198;2023-03-01T11:38:50;2.63;;;1.98;;
69240;SDS011;56352;55.750;13.198;2023-03-01T11:41:18;2.28;;;1.73;;
69240;SDS011;56352;55.750;13.198;2023-03-01T11:49:22;3.97;;;2.17;;
69240;SDS011;56352;55.750;13.198;2023-03-01T12:08:32;5.05;;;1.63;;
69240;SDS011;56352;55.750;13.198;2023-03-01T12:19:30;1.58;;;1.30;;
69240;SDS011;56352;55.750;13.198;2023-03-01T12:22:15;0.95;;;0.80;;
69240;SDS011;56352;55.750;13.198;2023-03-01T12:33:34;2.33;;;1.02;;
69240;SDS011;56352;55.750;13.198;2023-03-01T12:41:55;1.38;;;1.10;;
69240;SDS011;56352;55.750;13.198;2023-03-01T12:49:57;1.58;;;1.02;;
69240;SDS011;56352;55.750;13.198;2023-03-01T13:00:50;1.90;;;1.00;;
69240;SDS011;56352;55.750;13.198;2023-03-01T13:06:25;1.13;;;1.00;;
69240;SDS011;56352;55.750;13.198;2023-03-01T13:09:17;0.98;;;0.88;;
69240;SDS011;56352;55.750;13.198;2023-03-01T13:12:03;2.03;;;0.93;;
69240;SDS011;56352;55.750;13.198;2023-03-01T13:14:44;1.20;;;0.90;;
69240;SDS011;56352;55.750;13.198;2023-03-01T13:17:29;1.30;;;0.90;;
69240;SDS011;56352;55.750;13.198;2023-03-01T13:19:57;1.58;;;1.48;;
69240;SDS011;56352;55.750;13.198;2023-03-01T13:22:25;1.25;;;0.70;;
69240;SDS011;56352;55.750;13.198;2023-03-01T13:25:03;2.83;;;0.85;;
69240;SDS011;56352;55.750;13.198;2023-03-01T13:27:39;1.30;;;1.20;;
69240;SDS011;56352;55.750;13.198;2023-03-01T13:30:37;1.73;;;1.05;;
69240;SDS011;56352;55.750;13.198;2023-03-01T13:35:55;2.00;;;1.90;;
69240;SDS011;56352;55.750;13.198;2023-03-01T13:41:14;2.00;;;1.90;;
69240;SDS011;56352;55.750;13.198;2023-03-01T13:43:42;2.13;;;2.03;;
69240;SDS011;56352;55.750;13.198;2023-03-01T13:46:23;2.10;;;2.00;;
69240;SDS011;56352;55.750;13.198;2023-03-01T13:48:51;2.10;;;1.90;;
69240;SDS011;56352;55.750;13.198;2023-03-01T13:51:21;1.95;;;1.85;;
69240;SDS011;56352;55.750;13.198;2023-03-01T13:53:50;1.77;;;1.67;;
69240;SDS011;56352;55.750;13.198;2023-03-01T13:56:20;2.30;;;2.10;;
69240;SDS011;56352;55.750;13.198;2023-03-01T14:01:31;2.15;;;1.80;;
69240;SDS011;56352;55.750;13.198;2023-03-01T14:03:59;3.50;;;1.98;;
69240;SDS011;56352;55.750;13.198;2023-03-01T14:06:33;2.95;;;1.73;;
69240;SDS011;56352;55.750;13.198;2023-03-01T14:09:08;1.98;;;1.80;;
69240;SDS011;56352;55.750;13.198;2023-03-01T14:19:47;1.55;;;1.45;;
69240;SDS011;56352;55.750;13.198;2023-03-01T14:22:19;1.50;;;1.40;;
69240;SDS011;56352;55.750;13.198;2023-03-01T14:24:48;3.45;;;1.70;;
69240;SDS011;56352;55.750;13.198;2023-03-01T14:27:18;2.25;;;1.80;;
69240;SDS011;56352;55.750;13.198;2023-03-01T14:29:53;3.83;;;1.55;;
69240;SDS011;56352;55.750;13.198;2023-03-01T14:32:26;3.53;;;1.42;;
69240;SDS011;56352;55.750;13.198;2023-03-01T14:34:55;2.08;;;1.40;;
69240;SDS011;56352;55.750;13.198;2023-03-01T14:37:40;1.40;;;1.30;;
69240;SDS011;56352;55.750;13.198;2023-03-01T14:40:20;1.60;;;1.35;;
69240;SDS011;56352;55.750;13.198;2023-03-01T14:43:08;1.77;;;1.55;;
69240;SDS011;56352;55.750;13.198;2023-03-01T14:45:36;2.13;;;1.50;;
69240;SDS011;56352;55.750;13.198;2023-03-01T14:48:04;8.50;;;1.90;;
69240;SDS011;56352;55.750;13.198;2023-03-01T14:50:33;2.92;;;1.50;;
69240;SDS011;56352;55.750;13.198;2023-03-01T14:53:02;1.83;;;1.40;;
69240;SDS011;56352;55.750;13.198;2023-03-01T14:55:33;3.45;;;1.33;;
69240;SDS011;56352;55.750;13.198;2023-03-01T14:58:02;1.75;;;1.40;;
69240;SDS011;56352;55.750;13.198;2023-03-01T15:00:36;2.83;;;1.40;;
69240;SDS011;56352;55.750;13.198;2023-03-01T15:03:13;1.55;;;1.30;;
69240;SDS011;56352;55.750;13.198;2023-03-01T15:05:44;3.22;;;1.30;;
69240;SDS011;56352;55.750;13.198;2023-03-01T15:08:18;2.80;;;1.30;;
69240;SDS011;56352;55.750;13.198;2023-03-01T15:10:57;2.25;;;1.20;;
69240;SDS011;56352;55.750;13.198;2023-03-01T15:13:39;1.92;;;1.17;;
69240;SDS011;56352;55.750;13.198;2023-03-01T15:16:10;1.30;;;1.20;;
69240;SDS011;56352;55.750;13.198;2023-03-01T15:18:45;5.22;;;1.55;;
69240;SDS011;56352;55.750;13.198;2023-03-01T15:21:24;2.90;;;1.20;;
69240;SDS011;56352;55.750;13.198;2023-03-01T15:23:55;3.80;;;1.20;;
69240;SDS011;56352;55.750;13.198;2023-03-01T15:29:01;1.42;;;1.23;;
69240;SDS011;56352;55.750;13.198;2023-03-01T15:31:29;1.58;;;1.20;;
69240;SDS011;56352;55.750;13.198;2023-03-01T15:36:54;1.52;;;1.20;;
69240;SDS011;56352;55.750;13.198;2023-03-01T15:44:38;1.67;;;1.40;;
69240;SDS011;56352;55.750;13.198;2023-03-01T15:49:58;1.30;;;1.20;;
69240;SDS011;56352;55.750;13.198;2023-03-01T15:52:34;1.10;;;1.00;;
69240;SDS011;56352;55.750;13.198;2023-03-01T15:55:06;2.40;;;1.33;;
69240;SDS011;56352;55.750;13.198;2023-03-01T15:57:41;2.30;;;1.38;;
69240;SDS011;56352;55.750;13.198;2023-03-01T16:00:11;1.73;;;1.30;;
69240;SDS011;56352;55.750;13.198;2023-03-01T16:02:40;2.55;;;1.60;;
69240;SDS011;56352;55.750;13.198;2023-03-01T16:05:16;2.10;;;1.40;;
69240;SDS011;56352;55.750;13.198;2023-03-01T16:07:45;5.65;;;1.70;;
69240;SDS011;56352;55.750;13.198;2023-03-01T16:10:12;1.70;;;1.52;;
69240;SDS011;56352;55.750;13.198;2023-03-01T16:12:39;1.85;;;1.50;;
69240;SDS011;56352;55.750;13.198;2023-03-01T16:15:17;2.40;;;1.45;;
69240;SDS011;56352;55.750;13.198;2023-03-01T16:17:47;1.77;;;1.50;;
69240;SDS011;56352;55.750;13.198;2023-03-01T16:20:14;2.00;;;1.50;;
69240;SDS011;56352;55.750;13.198;2023-03-01T16:22:54;3.65;;;1.88;;
69240;SDS011;56352;55.750;13.198;2023-03-01T16:25:21;3.30;;;1.75;;
69240;SDS011;56352;55.750;13.198;2023-03-01T16:27:48;2.38;;;1.45;;
69240;SDS011;56352;55.750;13.198;2023-03-01T16:30:17;3.20;;;2.10;;
69240;SDS011;56352;55.750;13.198;2023-03-01T16:32:47;2.35;;;1.77;;
69240;SDS011;56352;55.750;13.198;2023-03-01T16:35:15;2.78;;;1.58;;
69240;SDS011;56352;55.750;13.198;2023-03-01T16:37:43;4.57;;;1.63;;
69240;SDS011;56352;55.750;13.198;2023-03-01T16:40:21;2.33;;;1.77;;
69240;SDS011;56352;55.750;13.198;2023-03-01T16:42:53;2.15;;;1.85;;
69240;SDS011;56352;55.750;13.198;2023-03-01T16:45:21;2.10;;;1.60;;
69240;SDS011;56352;55.750;13.198;2023-03-01T16:47:50;2.00;;;1.67;;
69240;SDS011;56352;55.750;13.198;2023-03-01T16:50:20;2.08;;;1.30;;
69240;SDS011;56352;55.750;13.198;2023-03-01T16:52:46;2.40;;;1.40;;
69240;SDS011;56352;55.750;13.198;2023-03-01T16:55:13;2.55;;;1.73;;
69240;SDS011;56352;55.750;13.198;2023-03-01T16:57:41;2.42;;;1.50;;
69240;SDS011;56352;55.750;13.198;2023-03-01T17:00:08;1.90;;;1.58;;
69240;SDS011;56352;55.750;13.198;2023-03-01T17:02:37;2.85;;;1.48;;
69240;SDS011;56352;55.750;13.198;2023-03-01T17:05:04;1.88;;;1.63;;